Time;durP1;ratioP1;P1;durP2;ratioP2;P2;SDS_P1;SDS_P2;PMS_P1;PMS_P2;Temp;Humidity;BMP_temperature;BMP_pressure;BME280_temperature;BME280_humidity;BME280_pressure;Samples;Min_cycle;Max_cycle;Signal;HPM_P1;HPM_P2
2021/12/07 00:02:10;;;;;;;26.93;17.83;;;4.50;73.50;;;6.98;59.43;100574.78;4935897;29;20641;-46
2021/12/07 00:04:39;;;;;;;28.30;18.73;;;4.50;73.50;;;6.95;58.83;100568.06;4935300;29;20212;-46
2021/12/07 00:07:07;;;;;;;29.77;19.13;;;4.50;73.50;;;6.92;59.41;100560.53;4936253;29;20200;-48
2021/12/07 00:09:35;;;;;;;27.07;17.73;;;4.50;73.30;;;6.95;59.00;100565.47;4936503;29;20203;-48
2021/12/07 00:12:06;;;;;;;25.83;18.97;;;4.50;73.40;;;6.97;58.86;100560.88;4936203;29;20282;-47
2021/12/07 00:14:40;;;;;;;26.47;18.03;;;4.50;73.40;;;6.93;59.19;100566.59;4937178;29;20655;-47
2021/12/07 00:17:09;;;;;;;29.77;18.77;;;4.50;73.40;;;6.94;59.15;100565.63;4936728;29;20218;-47
2021/12/07 00:19:36;;;;;;;26.90;17.73;;;4.50;73.40;;;6.95;58.89;100554.16;4944200;29;20592;-47
2021/12/07 00:22:08;;;;;;;27.40;18.23;;;4.50;73.40;;;6.92;59.28;100550.06;4938913;29;20561;-48
2021/12/07 00:24:40;;;;;;;28.20;18.17;;;4.50;74.20;;;6.89;59.15;100549.56;4941009;29;20251;-46
2021/12/07 00:27:07;;;;;;;28.03;19.47;;;4.50;73.40;;;6.84;59.18;100552.66;4939734;29;20195;-47
2021/12/07 00:29:36;;;;;;;27.30;19.13;;;4.40;73.30;;;6.79;59.35;100550.50;4940389;29;20195;-47
2021/12/07 00:37:40;;;;;;;26.90;18.13;;;4.40;73.50;;;6.56;59.17;100538.91;4939191;29;20240;-46
2021/12/07 00:40:12;;;;;;;26.53;17.13;;;4.30;73.40;;;6.49;59.38;100531.84;4940228;29;20656;-47
2021/12/07 00:42:40;;;;;;;30.43;17.60;;;4.30;73.60;;;6.47;60.00;100539.00;4940269;29;20774;-45
2021/12/07 00:45:10;;;;;;;28.73;17.93;;;4.30;73.60;;;6.45;59.88;100541.78;4941268;29;20222;-48
2021/12/07 00:47:38;;;;;;;26.70;18.10;;;4.20;73.60;;;6.42;60.01;100536.84;4940350;29;20237;-48
2021/12/07 00:50:08;;;;;;;31.03;18.43;;;4.20;73.80;;;6.41;60.42;100537.84;4940788;29;20203;-46
2021/12/07 00:52:36;;;;;;;27.23;17.93;;;4.20;73.90;;;6.49;60.25;100537.88;4922518;29;20202;-50
2021/12/07 00:55:09;;;;;;;24.07;16.10;;;4.20;74.00;;;6.47;59.84;100534.59;4939880;29;20199;-47
2021/12/07 00:57:36;;;;;;;30.37;18.63;;;4.20;74.00;;;6.47;60.01;100541.63;4940077;29;20585;-47
2021/12/07 01:00:07;;;;;;;29.20;17.43;;;4.10;74.00;;;6.40;60.50;100541.41;4939496;29;20745;-46
2021/12/07 01:02:36;;;;;;;24.97;17.07;;;4.10;74.00;;;6.42;60.27;100536.84;4939876;29;20218;-47
2021/12/07 01:05:13;;;;;;;29.93;18.33;;;4.10;74.00;;;6.39;59.94;100534.56;4939242;29;20194;-46
2021/12/07 01:07:56;;;;;;;31.63;18.33;;;4.20;74.10;;;6.40;59.85;100528.34;4939218;29;20219;-47
2021/12/07 01:27:05;;;;;;;28.13;18.73;;;4.20;74.00;;;6.62;59.71;100520.00;4940549;29;20205;-46
2021/12/07 01:29:34;;;;;;;27.27;17.00;;;4.20;74.00;;;6.70;59.89;100527.09;4924279;29;20651;-47
2021/12/07 01:32:34;;;;;;;27.27;17.23;;;4.20;74.70;;;6.74;59.74;100524.00;4938473;29;20201;-47
2021/12/07 01:59:33;;;;;;;27.83;16.87;;;4.40;73.60;;;6.99;58.50;100532.78;4938247;29;20241;-47
2021/12/07 02:02:04;;;;;;;28.97;16.30;;;4.40;73.50;;;7.06;58.55;100527.75;4938636;29;20678;-49
2021/12/07 02:04:32;;;;;;;30.67;17.27;;;4.50;73.40;;;7.16;58.54;100531.88;4938670;29;20195;-46
2021/12/07 02:07:01;;;;;;;27.23;17.20;;;4.50;73.50;;;7.21;58.11;100539.25;4937518;29;20649;-47
2021/12/07 02:09:30;;;;;;;27.00;17.77;;;4.60;73.30;;;7.15;57.93;100529.41;4937894;29;20191;-45
2021/12/07 02:12:00;;;;;;;25.77;16.10;;;4.60;72.90;;;7.14;58.62;100538.25;4920832;29;20229;-46
2021/12/07 02:14:29;;;;;;;29.17;17.17;;;4.60;72.90;;;7.15;57.84;100535.47;4938529;29;20195;-45
2021/12/07 02:17:00;;;;;;;26.70;16.63;;;4.60;72.80;;;7.13;58.39;100542.66;4937792;29;20207;-45
2021/12/07 02:19:27;;;;;;;24.53;17.33;;;4.60;72.70;;;7.13;58.29;100539.22;4937879;29;20610;-45
2021/12/07 02:21:58;;;;;;;27.77;16.50;;;4.60;72.70;;;7.17;58.52;100537.94;4937651;29;20301;-46
2021/12/07 02:24:27;;;;;;;24.80;16.10;;;4.70;72.80;;;7.22;57.93;100538.28;4937271;29;20204;-47
2021/12/07 02:26:56;;;;;;;25.37;15.60;;;4.70;72.80;;;7.28;58.06;100542.88;4920461;29;20206;-48
2021/12/07 02:29:24;;;;;;;24.97;15.57;;;4.70;73.50;;;7.32;57.93;100546.84;4937436;29;20232;-46
2021/12/07 02:31:54;;;;;;;26.03;15.67;;;4.70;72.70;;;7.33;57.86;100548.44;4937664;29;20220;-48
2021/12/07 02:34:23;;;;;;;28.83;16.67;;;4.70;72.60;;;7.33;57.96;100548.44;4937756;29;20195;-47
2021/12/07 02:36:51;;;;;;;24.60;15.17;;;4.80;72.50;;;7.36;57.57;100548.16;4937424;29;20609;-47
2021/12/07 02:39:30;;;;;;;26.33;16.67;;;4.70;72.50;;;7.36;57.72;100548.97;4938206;29;20190;-47
2021/12/07 02:41:58;;;;;;;25.07;15.20;;;4.80;72.50;;;7.44;57.12;100556.03;4937417;29;20257;-48
2021/12/07 02:44:25;;;;;;;22.27;14.97;;;4.80;72.40;;;7.48;57.47;100552.13;4937099;29;20247;-47
2021/12/07 02:46:53;;;;;;;25.93;17.17;;;4.80;72.50;;;7.51;57.56;100557.03;4920089;29;20646;-47
2021/12/07 02:49:21;;;;;;;25.07;16.97;;;4.80;72.30;;;7.52;57.18;100558.66;4937502;29;20194;-46
2021/12/07 02:51:48;;;;;;;21.77;13.77;;;4.90;72.30;;;7.56;57.34;100565.22;4937833;29;20224;-47
2021/12/07 02:54:17;;;;;;;21.17;13.73;;;4.90;72.40;;;7.59;57.31;100559.66;4937400;29;20597;-47
2021/12/07 02:56:46;;;;;;;23.20;15.60;;;4.90;72.30;;;7.66;57.25;100570.31;4937305;29;20293;-46
2021/12/07 02:59:13;;;;;;;25.67;16.40;;;4.90;72.40;;;7.73;57.04;100566.91;4937993;29;20209;-47
2021/12/07 03:01:46;;;;;;;20.40;14.17;;;5.00;72.50;;;7.80;57.21;100569.69;4939037;29;20224;-47
2021/12/07 03:04:22;;;;;;;26.67;15.23;;;5.00;72.50;;;7.83;57.01;100567.59;4938088;29;20190;-45
2021/12/07 03:26:03;;;;;;;22.30;14.23;;;5.30;72.50;;;7.99;56.90;100572.84;4937480;29;20217;-47
2021/12/07 03:28:36;;;;;;;22.43;14.83;;;5.20;72.30;;;7.93;57.16;100567.44;4919525;29;20214;-48
2021/12/07 03:31:05;;;;;;;22.03;14.63;;;5.30;72.40;;;7.94;57.30;100574.31;4920421;29;20250;-45
2021/12/07 03:33:33;;;;;;;23.37;15.40;;;5.30;72.50;;;7.90;57.23;100584.31;4921806;29;20191;-46
2021/12/07 03:36:03;;;;;;;20.30;14.23;;;5.20;72.40;;;7.89;57.52;100576.59;4937359;29;20191;-47
2021/12/07 03:38:31;;;;;;;22.80;15.33;;;5.20;72.70;;;7.93;57.65;100583.16;4936453;29;20675;-46
2021/12/07 03:40:58;;;;;;;22.40;14.77;;;5.20;73.00;;;7.93;57.60;100589.22;4936364;29;20202;-46
2021/12/07 03:43:26;;;;;;;25.17;15.20;;;5.20;73.10;;;7.96;57.48;100588.88;4936619;29;20224;-45
2021/12/07 03:45:55;;;;;;;22.30;15.60;;;5.20;73.10;;;7.91;57.78;100585.94;4936211;29;20227;-46
2021/12/07 03:48:22;;;;;;;23.87;14.57;;;5.20;73.20;;;7.85;57.90;100597.06;4936001;29;20220;-46
2021/12/07 03:50:50;;;;;;;23.70;14.93;;;5.20;73.20;;;7.84;58.06;100595.44;4936019;29;20269;-47
2021/12/07 03:53:17;;;;;;;23.57;14.07;;;5.20;73.50;;;7.84;58.06;100592.00;4917311;29;20191;-45
2021/12/07 03:55:45;;;;;;;21.10;14.40;;;5.20;73.50;;;7.82;58.33;100592.13;4917816;29;20198;-47
2021/12/07 03:58:13;;;;;;;20.73;13.17;;;5.10;73.60;;;7.86;58.44;100588.22;4900438;29;20250;-46
2021/12/07 04:00:45;;;;;;;22.20;15.03;;;5.10;73.90;;;7.88;58.24;100588.88;4917863;29;20731;-46
2021/12/07 04:03:17;;;;;;;19.10;12.57;;;5.20;74.10;;;7.89;58.29;100585.25;4900199;29;20251;-48
2021/12/07 04:05:49;;;;;;;22.10;14.07;;;5.10;74.00;;;7.84;58.40;100584.13;4917477;29;20201;-47
2021/12/07 04:08:22;;;;;;;21.33;14.53;;;5.10;74.00;;;7.78;58.67;100590.81;4917704;29;20406;-48
2021/12/07 04:10:52;;;;;;;24.93;16.07;;;5.10;74.10;;;7.78;58.65;100590.81;4917202;29;20235;-47
2021/12/07 04:13:20;;;;;;;24.67;14.57;;;5.10;74.20;;;7.77;58.66;100591.00;4917704;29;20219;-48
2021/12/07 04:15:48;;;;;;;20.90;14.70;;;5.10;74.30;;;7.76;58.64;100590.16;4917824;29;20206;-49
2021/12/07 04:18:18;;;;;;;22.10;14.23;;;5.10;74.30;;;7.77;58.91;100594.44;4916751;29;20220;-47
2021/12/07 04:20:46;;;;;;;20.07;14.00;;;5.10;74.50;;;7.73;58.79;100587.84;4917517;29;20275;-47
2021/12/07 04:23:13;;;;;;;26.43;15.20;;;5.00;74.60;;;7.74;59.16;100586.06;4917498;29;20221;-47
2021/12/07 04:25:41;;;;;;;22.20;14.93;;;5.00;74.70;;;7.74;58.92;100593.91;4917168;29;20202;-45
2021/12/07 04:28:08;;;;;;;22.13;14.07;;;5.00;74.90;;;7.70;59.05;100587.38;4933343;29;20218;-47
2021/12/07 04:30:39;;;;;;;23.20;15.77;;;5.00;74.80;;;7.66;59.09;100588.66;4936083;29;20198;-47
2021/12/07 04:33:10;;;;;;;19.70;13.80;;;5.00;75.00;;;7.68;59.14;100591.94;4936422;29;20270;-47
2021/12/07 04:35:44;;;;;;;23.30;14.60;;;5.00;75.00;;;7.70;59.61;100598.66;4936497;29;20278;-49
2021/12/07 04:38:12;;;;;;;20.50;13.77;;;5.00;75.30;;;7.71;59.30;100600.28;4935893;29;20218;-47
2021/12/07 04:40:40;;;;;;;21.70;14.83;;;5.00;75.20;;;7.73;59.34;100597.50;4936499;29;20202;-47
2021/12/07 04:43:08;;;;;;;23.17;13.97;;;5.00;75.30;;;7.72;59.34;100596.72;4919593;29;20240;-47
2021/12/07 04:59:14;;;;;;;23.23;13.73;;;5.00;75.10;;;7.63;59.65;100608.13;4936512;29;20220;-46
2021/12/07 05:01:42;;;;;;;24.80;14.57;;;5.00;75.20;;;7.73;59.84;100613.22;4936118;29;20278;-45
2021/12/07 05:04:15;;;;;;;22.23;14.97;;;5.00;75.70;;;7.81;59.38;100611.47;4936513;29;20204;-47
2021/12/07 05:06:49;;;;;;;26.17;17.20;;;5.00;75.80;;;7.85;59.00;100607.53;4936224;29;20202;-46
2021/12/07 05:14:32;;;;;;;22.33;15.50;;;5.10;75.10;;;7.81;59.09;100616.69;4940709;29;20217;-46
2021/12/07 05:25:50;;;;;;;22.63;15.50;;;5.10;75.00;;;7.69;59.55;100620.59;4939054;29;20199;-48
2021/12/07 05:39:28;;;;;;;25.33;15.43;;;5.00;75.20;;;7.72;59.39;100628.13;4941180;29;20198;-46
2021/12/07 05:41:57;;;;;;;20.40;13.70;;;5.00;75.30;;;7.80;59.34;100630.78;4922388;29;20278;-47
2021/12/07 05:44:25;;;;;;;23.03;15.47;;;5.10;75.50;;;7.88;59.39;100635.22;4939357;29;20203;-47
2021/12/07 05:46:52;;;;;;;23.03;14.83;;;5.10;75.80;;;7.96;59.10;100636.03;4938342;29;20274;-47
2021/12/07 05:49:19;;;;;;;24.87;16.23;;;5.10;75.70;;;7.98;58.88;100641.97;4938767;29;20186;-47
2021/12/07 05:51:47;;;;;;;23.13;15.17;;;5.10;75.50;;;7.97;58.88;100648.19;4942958;29;20212;-47
2021/12/07 05:54:14;;;;;;;23.47;15.57;;;5.20;75.50;;;7.94;59.04;100661.59;4937517;29;20278;-48
2021/12/07 05:56:43;;;;;;;22.37;15.53;;;5.20;75.20;;;7.91;58.63;100658.50;4938304;29;20206;-47
2021/12/07 05:59:10;;;;;;;22.80;15.30;;;5.20;75.00;;;7.86;59.04;100658.97;4938833;29;20214;-46
2021/12/07 06:01:38;;;;;;;24.60;16.20;;;5.20;75.10;;;7.82;58.94;100662.88;4938661;29;20608;-47
2021/12/07 06:04:06;;;;;;;26.50;17.20;;;5.20;75.00;;;7.80;59.26;100659.59;4921161;29;20243;-46
2021/12/07 06:06:33;;;;;;;23.83;16.00;;;5.10;75.00;;;7.81;59.20;100656.00;4938516;29;20194;-47
2021/12/07 06:09:01;;;;;;;25.77;17.37;;;5.10;75.00;;;7.81;59.24;100657.78;4937944;29;20221;-47
2021/12/07 06:11:29;;;;;;;23.90;15.70;;;5.10;74.90;;;7.79;59.33;100660.59;4937128;29;20214;-46
2021/12/07 06:13:58;;;;;;;25.50;15.70;;;5.10;75.00;;;7.83;59.08;100661.06;4938694;29;20275;-48
2021/12/07 06:16:30;;;;;;;27.37;16.37;;;5.10;75.30;;;7.88;59.41;100667.47;4938524;29;20273;-46
2021/12/07 06:18:58;;;;;;;26.07;15.20;;;5.10;75.50;;;7.90;59.16;100668.16;4937781;29;20328;-45
2021/12/07 06:21:26;;;;;;;24.07;16.10;;;5.10;75.50;;;7.94;59.23;100669.44;4938453;29;20274;-49
2021/12/07 06:23:54;;;;;;;26.50;16.90;;;5.10;75.50;;;7.95;59.20;100676.34;4937552;29;20225;-47
2021/12/07 06:26:21;;;;;;;23.70;15.07;;;5.20;75.50;;;7.97;59.18;100679.63;4938213;29;20202;-47
2021/12/07 06:28:49;;;;;;;24.03;15.57;;;5.20;75.50;;;8.01;59.02;100686.19;4937133;29;20217;-47
2021/12/07 06:31:18;;;;;;;22.80;15.70;;;5.20;75.50;;;8.01;59.30;100686.19;4938199;29;20194;-46
2021/12/07 06:33:46;;;;;;;24.83;17.07;;;5.20;75.40;;;8.01;58.84;100691.41;4938653;29;20204;-48
2021/12/07 06:36:14;;;;;;;24.77;16.33;;;5.30;75.30;;;7.99;58.93;100687.31;4938028;29;20277;-48
2021/12/07 06:38:44;;;;;;;23.20;16.40;;;5.30;75.20;;;7.97;59.05;100679.63;4937469;29;20218;-46
2021/12/07 06:41:11;;;;;;;27.97;18.30;;;5.30;75.20;;;8.00;59.16;100683.72;4938084;29;20765;-48
2021/12/07 06:43:39;;;;;;;26.37;18.23;;;5.30;76.00;;;8.03;59.16;100683.41;4938125;29;20308;-47
2021/12/07 06:46:06;;;;;;;25.37;16.37;;;5.30;75.30;;;8.03;58.50;100686.84;4937568;29;20250;-46
2021/12/07 06:48:35;;;;;;;24.47;15.90;;;5.30;75.20;;;8.01;58.82;100683.56;4937546;29;20592;-48
2021/12/07 06:51:04;;;;;;;23.33;15.80;;;5.30;75.20;;;7.97;59.48;100690.09;4938060;29;20249;-48
2021/12/07 06:53:35;;;;;;;24.30;14.93;;;5.30;75.00;;;7.95;59.12;100707.78;4920979;29;20202;-48
2021/12/07 06:56:06;;;;;;;24.37;15.37;;;5.30;75.10;;;7.92;59.15;100713.34;4937107;29;20200;-48
2021/12/07 06:58:34;;;;;;;26.20;17.47;;;5.30;75.10;;;7.92;59.20;100708.09;4938093;29;20621;-46
2021/12/07 07:01:06;;;;;;;25.33;16.57;;;5.30;75.10;;;7.92;58.84;100709.91;4939569;29;20192;-45
2021/12/07 07:03:36;;;;;;;28.93;17.10;;;5.30;75.20;;;7.96;59.21;100719.91;4938765;29;20218;-47
2021/12/07 07:06:05;;;;;;;25.77;17.47;;;5.30;75.30;;;7.98;59.21;100717.97;4938321;29;20274;-46
2021/12/07 07:08:32;;;;;;;25.47;16.00;;;5.30;75.40;;;8.01;59.09;100720.25;4944116;29;20246;-47
2021/12/07 07:11:00;;;;;;;24.10;16.90;;;5.30;75.20;;;8.01;58.87;100728.13;4939933;29;20212;-47
2021/12/07 07:13:27;;;;;;;28.67;17.43;;;5.30;75.30;;;7.99;59.17;100727.44;4953529;29;20578;-46
2021/12/07 07:15:55;;;;;;;24.60;16.20;;;5.30;75.20;;;7.96;59.11;100735.63;4936460;29;20190;-48
2021/12/07 07:18:22;;;;;;;26.97;18.30;;;5.30;75.20;;;7.96;59.35;100740.88;4936643;29;20559;-46
2021/12/07 07:20:51;;;;;;;24.77;17.53;;;5.30;75.30;;;8.00;59.34;100738.75;4951418;29;20265;-47
2021/12/07 07:23:19;;;;;;;27.20;17.60;;;5.30;75.50;;;8.01;59.04;100740.41;4936579;29;20270;-47
2021/12/07 07:25:55;;;;;;;24.40;17.23;;;5.30;75.50;;;8.01;59.26;100743.84;4936194;29;20219;-46
2021/12/07 07:28:24;;;;;;;27.73;17.20;;;5.30;75.40;;;8.03;59.36;100756.81;4918415;29;20606;-49
2021/12/07 07:30:52;;;;;;;27.07;17.57;;;5.30;75.50;;;8.04;58.93;100753.19;4935616;29;20217;-47
2021/12/07 07:33:20;;;;;;;21.77;15.70;;;5.30;75.40;;;8.04;59.25;100756.63;4917134;29;20290;-48
2021/12/07 07:35:47;;;;;;;24.63;16.50;;;5.30;75.40;;;8.07;59.02;100753.69;4935151;29;20230;-48
2021/12/07 07:38:16;;;;;;;25.83;17.77;;;5.30;75.40;;;8.07;59.05;100764.19;4934735;29;20218;-49
2021/12/07 07:40:46;;;;;;;30.33;17.60;;;5.30;75.30;;;8.01;58.81;100756.94;4934166;29;20605;-53
2021/12/07 07:43:17;;;;;;;26.53;16.80;;;5.30;75.10;;;7.96;58.95;100756.59;4932442;29;20217;-47
2021/12/07 07:45:47;;;;;;;23.20;15.40;;;5.30;75.00;;;7.92;59.32;100755.25;4934252;29;20251;-48
2021/12/07 07:48:19;;;;;;;24.30;16.20;;;5.30;75.10;;;7.92;59.35;100755.25;4934688;29;20229;-48
2021/12/07 07:50:50;;;;;;;29.80;19.07;;;5.30;75.20;;;7.90;59.42;100754.59;4918413;29;20209;-49
2021/12/07 07:53:23;;;;;;;27.50;18.37;;;5.30;75.30;;;7.90;59.84;100754.59;4927956;29;20203;-46
2021/12/07 07:55:53;;;;;;;30.03;17.37;;;5.30;75.50;;;7.95;59.65;100756.75;4918394;29;20213;-47
2021/12/07 07:58:21;;;;;;;24.37;17.00;;;5.30;75.70;;;7.95;59.46;100749.72;4900102;29;20370;-48
2021/12/07 08:00:50;;;;;;;23.00;16.53;;;5.30;75.60;;;7.96;59.29;100747.94;4908146;29;20209;-50
2021/12/07 08:03:18;;;;;;;26.90;16.87;;;5.30;75.50;;;8.00;59.70;100754.47;4936915;29;20304;-48
2021/12/07 08:05:46;;;;;;;24.17;16.80;;;5.30;75.70;;;8.02;59.58;100752.53;4935933;29;20196;-47
2021/12/07 08:08:14;;;;;;;27.17;17.03;;;5.30;75.60;;;7.96;59.39;100756.59;4934491;29;20219;-49
2021/12/07 08:10:43;;;;;;;21.27;15.10;;;5.30;75.40;;;7.94;59.56;100755.94;4935361;29;20208;-48
2021/12/07 08:13:11;;;;;;;26.77;16.30;;;5.30;75.50;;;7.96;59.30;100772.31;4918544;29;20216;-48
2021/12/07 08:15:43;;;;;;;22.73;14.93;;;5.30;75.60;;;7.98;59.59;100765.13;4942331;29;20195;-48
2021/12/07 08:18:14;;;;;;;22.97;15.30;;;5.30;75.60;;;8.06;59.70;100774.81;4935558;29;20223;-47
2021/12/07 08:20:47;;;;;;;24.67;15.70;;;5.30;75.70;;;8.12;59.40;100772.41;4935698;29;20202;-48
2021/12/07 08:23:14;;;;;;;21.70;15.07;;;5.40;76.00;;;8.16;59.48;100784.22;4933400;29;20817;-50
2021/12/07 08:25:47;;;;;;;21.63;15.10;;;5.40;75.90;;;8.17;59.16;100785.84;4949173;29;20574;-48
2021/12/07 08:28:19;;;;;;;21.67;16.30;;;5.40;75.70;;;8.18;59.25;100787.47;4944543;29;20294;-48
2021/12/07 08:30:49;;;;;;;23.90;15.53;;;5.40;75.60;;;8.19;59.21;100778.66;4938330;29;20209;-48
2021/12/07 08:33:19;;;;;;;23.33;16.67;;;5.50;75.60;;;8.26;59.22;100783.25;4924095;29;20195;-49
2021/12/07 08:35:47;;;;;;;20.93;14.67;;;5.50;75.80;;;8.33;59.12;100776.44;4934173;29;20223;-46
2021/12/07 08:38:15;;;;;;;21.80;14.37;;;5.50;75.80;;;8.38;59.22;100774.16;4932465;29;20738;-47
2021/12/07 08:40:45;;;;;;;26.33;15.73;;;5.50;75.90;;;8.42;58.94;100772.84;4933889;29;20312;-48
2021/12/07 08:43:13;;;;;;;21.87;14.33;;;5.60;75.90;;;8.46;59.23;100774.19;4938692;29;20289;-48
2021/12/07 08:45:41;;;;;;;18.90;14.97;;;5.60;75.80;;;8.46;58.90;100780.22;4943129;29;20696;-48
2021/12/07 08:48:09;;;;;;;21.00;14.43;;;5.70;75.70;;;8.46;58.67;100784.69;4938031;29;20672;-48
2021/12/07 08:50:37;;;;;;;25.40;15.90;;;5.70;75.30;;;8.42;58.71;100796.44;4938115;29;20351;-47
2021/12/07 08:53:08;;;;;;;22.23;15.77;;;5.70;75.10;;;8.40;58.80;100795.78;4939834;29;20221;-47
2021/12/07 09:01:14;;;;;;;24.63;15.40;;;5.70;75.30;;;8.34;59.23;100796.44;4938532;29;20246;-46
2021/12/07 09:03:42;;;;;;;22.53;15.37;;;5.70;75.40;;;8.36;59.22;100799.72;4938795;29;20744;-48
2021/12/07 09:06:10;;;;;;;21.60;14.67;;;5.70;75.50;;;8.34;59.23;100806.91;4939772;29;20225;-46
2021/12/07 09:08:40;;;;;;;20.37;12.87;;;5.70;75.50;;;8.37;59.45;100806.63;4934838;29;20243;-48
2021/12/07 09:11:12;;;;;;;21.53;14.07;;;5.70;75.60;;;8.44;59.64;100805.00;4935421;29;20221;-48
2021/12/07 09:13:42;;;;;;;16.20;12.57;;;5.70;75.80;;;8.50;59.62;100807.81;4932965;29;20214;-47
2021/12/07 09:16:14;;;;;;;18.27;14.57;;;5.80;76.00;;;8.58;59.22;100807.00;4938006;29;20207;-48
2021/12/07 09:18:42;;;;;;;17.80;13.43;;;5.80;76.00;;;8.64;59.14;100820.28;4935443;29;20224;-46
2021/12/07 09:21:10;;;;;;;17.77;12.93;;;5.80;75.90;;;8.69;58.95;100827.69;4934626;29;20721;-51
2021/12/07 09:23:39;;;;;;;19.23;14.27;;;5.90;75.70;;;8.71;59.33;100820.47;4923699;29;20754;-46
2021/12/07 09:26:09;;;;;;;18.10;13.77;;;5.90;75.80;;;8.72;59.15;100807.19;4934809;29;20229;-50
2021/12/07 09:28:39;;;;;;;17.70;14.07;;;5.90;75.70;;;8.80;59.36;100798.50;4933143;29;20306;-49
2021/12/07 09:31:09;;;;;;;20.40;13.90;;;6.00;76.00;;;8.88;59.08;100806.41;4937129;29;20283;-47
2021/12/07 09:33:38;;;;;;;18.83;14.33;;;6.00;75.90;;;8.89;58.85;100812.47;4933472;29;20200;-47
2021/12/07 09:36:11;;;;;;;18.83;13.27;;;6.10;75.80;;;8.91;58.70;100810.50;4937327;29;20683;-47
2021/12/07 09:38:41;;;;;;;19.37;15.13;;;6.10;75.70;;;8.94;58.65;100808.38;4935405;29;20223;-48
2021/12/07 09:41:11;;;;;;;19.50;15.07;;;6.10;75.70;;;8.94;58.84;100816.25;4936913;29;20198;-48
2021/12/07 09:43:38;;;;;;;17.40;13.40;;;6.10;75.50;;;8.96;58.74;100809.06;4936862;29;20319;-45
2021/12/07 09:46:12;;;;;;;20.17;14.13;;;6.10;75.50;;;8.94;58.95;100800.50;4937506;29;20251;-46
2021/12/07 09:48:41;;;;;;;19.40;14.30;;;6.20;75.40;;;8.98;58.98;100801.00;4933890;29;20508;-46
2021/12/07 09:51:11;;;;;;;17.53;13.07;;;6.20;75.50;;;8.98;58.96;100796.59;4937483;29;20187;-48
2021/12/07 09:53:39;;;;;;;15.67;11.97;;;6.20;75.60;;;9.03;58.72;100793.47;4935106;29;20242;-46
2021/12/07 09:56:08;;;;;;;19.93;14.07;;;6.20;75.60;;;9.04;58.92;100789.84;4936193;29;20222;-46
2021/12/07 09:58:38;;;;;;;16.87;13.47;;;6.30;75.80;;;9.09;58.76;100785.75;4919149;29;20230;-46
2021/12/07 10:01:10;;;;;;;19.13;13.90;;;6.30;75.90;;;9.19;58.90;100781.16;4930418;29;20568;-46
2021/12/07 10:03:43;;;;;;;17.83;14.17;;;6.30;76.10;;;9.30;59.05;100777.38;4916155;29;22236;-46
2021/12/07 10:06:14;;;;;;;19.53;14.27;;;6.40;76.10;;;9.40;58.47;100770.97;4922547;29;20209;-53
2021/12/07 10:08:42;;;;;;;17.73;13.70;;;6.50;76.20;;;9.44;58.65;100771.44;4933309;29;20304;-47
2021/12/07 10:11:12;;;;;;;18.10;13.77;;;6.50;75.70;;;9.46;58.45;100778.16;4937646;29;20210;-45
2021/12/07 10:13:43;;;;;;;18.57;14.13;;;6.60;75.50;;;9.52;58.46;100780.16;4936807;29;20221;-47
2021/12/07 10:16:16;;;;;;;19.00;14.20;;;6.60;75.60;;;9.58;58.16;100793.63;4937488;29;20207;-45
2021/12/07 10:18:45;;;;;;;17.90;13.60;;;6.70;75.50;;;9.61;58.43;100785.38;4937608;29;20222;-46
2021/12/07 10:21:16;;;;;;;13.73;11.40;;;6.70;75.50;;;9.69;58.39;100798.50;4904377;29;20209;-47
2021/12/07 10:23:49;;;;;;;19.20;14.03;;;6.70;75.60;;;9.70;57.55;100806.22;4937989;29;20545;-48
2021/12/07 10:26:20;;;;;;;17.10;13.23;;;6.80;75.00;;;9.71;57.95;100804.41;4938805;29;20217;-47
2021/12/07 10:28:51;;;;;;;16.63;13.83;;;6.80;75.00;;;9.66;57.83;100790.94;4937623;29;20214;-46
2021/12/07 10:31:34;;;;;;;18.23;13.37;;;6.80;74.80;;;9.60;57.97;100778.50;4937085;29;20190;-48
2021/12/07 10:34:06;;;;;;;15.70;12.77;;;6.80;74.70;;;9.58;57.98;100783.09;4938140;29;20284;-47
2021/12/07 10:36:39;;;;;;;16.00;12.90;;;6.80;74.80;;;9.60;57.97;100781.13;4937904;29;20207;-45
2021/12/07 10:39:12;;;;;;;17.40;13.50;;;6.80;75.00;;;9.64;58.36;100779.78;4936802;29;20540;-47
2021/12/07 10:41:42;;;;;;;18.77;13.13;;;6.80;75.20;;;9.71;57.85;100772.88;4937883;29;20216;-47
2021/12/07 10:44:12;;;;;;;13.97;11.80;;;6.90;75.40;;;9.75;58.31;100753.16;4936340;29;20313;-48
2021/12/07 10:46:52;;;;;;;22.63;16.53;;;6.90;75.30;;;9.75;58.00;100753.16;4936629;29;20268;-48
2021/12/07 10:49:46;;;;;;;18.10;13.90;;;6.90;75.20;;;9.80;58.06;100756.09;4913912;29;20245;-49
2021/12/07 10:52:24;;;;;;;18.43;13.20;;;7.00;75.20;;;9.83;57.83;100756.59;4936443;29;20226;-51
2021/12/07 10:54:59;;;;;;;18.63;12.23;;;7.00;75.00;;;9.92;58.18;100754.75;4903871;29;20559;-47
2021/12/07 10:57:31;;;;;;;16.47;13.83;;;7.10;75.20;;;10.03;58.08;100764.91;4936393;29;20300;-48
2021/12/07 11:00:15;;;;;;;18.57;13.00;;;7.10;75.20;;;10.10;57.62;100763.25;4929393;29;20273;-48
2021/12/07 11:02:48;;;;;;;19.23;13.37;;;7.20;76.00;;;10.19;57.76;100767.50;4931983;29;20229;-48
2021/12/07 11:05:21;;;;;;;21.30;12.83;;;7.20;75.00;;;10.21;57.50;100770.78;4934210;29;20264;-47
2021/12/07 11:07:50;;;;;;;16.80;12.70;;;7.30;74.50;;;10.27;57.57;100759.56;4936877;29;20274;-47
2021/12/07 11:10:27;;;;;;;20.27;13.10;;;7.40;74.60;;;10.31;57.16;100795.06;4935930;29;20277;-46
2021/12/07 11:13:11;;;;;;;16.30;13.13;;;7.40;74.40;;;10.28;56.68;100755.13;4914465;29;20200;-48
2021/12/07 11:15:49;;;;;;;15.93;12.60;;;7.40;74.00;;;10.22;56.99;100787.38;4934806;29;20200;-48
2021/12/07 11:18:24;;;;;;;17.13;11.43;;;7.40;73.80;;;10.19;57.52;100799.06;4915242;29;20242;-47
2021/12/07 11:20:54;;;;;;;15.57;12.23;;;7.40;73.90;;;10.17;57.51;100772.13;4935188;29;20197;-47
2021/12/07 11:23:26;;;;;;;16.90;13.73;;;7.40;73.90;;;10.08;57.39;100802.84;4935540;29;20381;-47
2021/12/07 11:31:23;;;;;;;20.13;12.73;;;7.40;74.00;;;10.01;57.23;100822.06;4929260;29;20194;-45
2021/12/07 11:34:03;;;;;;;16.10;12.10;;;7.30;73.90;;;9.98;57.35;100817.97;4928817;29;20197;-47
2021/12/07 11:36:36;;;;;;;13.57;11.50;;;7.30;73.70;;;9.98;57.34;100812.72;4921300;29;20206;-47
2021/12/07 11:39:21;;;;;;;13.43;11.20;;;7.30;73.90;;;9.97;57.70;100818.16;4916465;29;20591;-48
2021/12/07 11:41:52;;;;;;;16.43;11.57;;;7.30;74.00;;;9.99;57.81;100813.53;4929451;29;20201;-48
2021/12/07 11:44:22;;;;;;;15.13;12.00;;;7.30;74.00;;;9.94;57.76;100815.84;4918428;29;20218;-49
2021/12/07 11:46:53;;;;;;;17.93;12.13;;;7.30;73.90;;;9.89;57.73;100820.81;4934828;29;20233;-47
2021/12/07 11:49:26;;;;;;;16.20;12.03;;;7.30;73.90;;;9.86;57.67;100803.56;4935505;29;20202;-46
2021/12/07 11:51:58;;;;;;;17.73;11.60;;;7.20;74.00;;;9.84;57.57;100810.78;4936668;29;20198;-47
2021/12/07 11:54:32;;;;;;;16.00;10.27;;;7.20;74.00;;;9.84;58.01;100810.00;4926863;29;20213;-49
2021/12/07 11:57:02;;;;;;;14.63;11.33;;;7.20;74.10;;;9.85;58.39;100816.88;4937001;29;20620;-47
2021/12/07 11:59:29;;;;;;;16.13;11.20;;;7.20;74.20;;;9.85;58.32;100811.59;4938897;29;20202;-47
2021/12/07 12:01:57;;;;;;;17.40;11.73;;;7.20;74.40;;;9.84;58.17;100810.00;4934705;29;20189;-49
2021/12/07 12:04:26;;;;;;;22.30;11.93;;;7.20;74.40;;;9.83;57.92;100796.03;4935888;29;20232;-48
2021/12/07 12:06:58;;;;;;;19.20;11.27;;;7.20;74.50;;;9.84;58.07;100800.28;4954496;29;20249;-47
2021/12/07 12:09:27;;;;;;;16.50;12.63;;;7.20;74.60;;;9.89;58.20;100805.06;4955358;29;20264;-49
2021/12/07 12:12:09;;;;;;;12.83;10.43;;;7.20;74.80;;;9.90;58.05;100799.63;4942248;29;20201;-48
2021/12/07 12:14:52;;;;;;;18.73;13.60;;;7.20;74.90;;;9.96;58.64;100806.00;4936162;29;20193;-48
2021/12/07 12:17:37;;;;;;;20.90;11.23;;;7.20;75.00;;;9.97;58.02;100805.84;4935947;29;20214;-47
2021/12/07 12:20:29;;;;;;;18.40;12.53;;;7.20;74.90;;;9.95;58.22;100796.47;4939662;29;20197;-46
2021/12/07 12:23:10;;;;;;;17.83;11.40;;;7.30;74.80;;;9.93;58.34;100793.19;4939819;29;20198;-49